Time;durP1;ratioP1;P1;durP2;ratioP2;P2;SDS_P1;SDS_P2;PMS_P1;PMS_P2;Temp;Humidity;BMP_temperature;BMP_pressure;BME280_temperature;BME280_humidity;BME280_pressure;Samples;Min_cycle;Max_cycle;Signal;HPM_P1;HPM_P2
2021/09/26 00:00:20;;;;;;;4.97;4.38;;;;;;;19.29;64.26;101636.91;6121413;29;20330;-50
2021/09/26 00:03:40;;;;;;;5.13;4.63;;;;;;;19.13;65.11;101631.22;6121971;28;20224;-48
2021/09/26 00:07:03;;;;;;;6.88;5.15;;;;;;;19.16;64.97;101623.22;6119161;29;20223;-49
2021/09/26 00:10:23;;;;;;;7.97;5.10;;;;;;;19.30;64.51;101630.69;6120624;29;20702;-51
2021/09/26 00:13:45;;;;;;;4.05;3.75;;;;;;;19.09;64.96;101632.25;6122005;28;20513;-53
2021/09/26 00:17:06;;;;;;;4.60;4.20;;;;;;;19.16;64.74;101635.56;6108479;29;20235;-51
2021/09/26 00:20:28;;;;;;;4.28;3.97;;;;;;;19.23;64.56;101639.72;6116537;29;20196;-51
2021/09/26 00:23:53;;;;;;;6.75;4.57;;;;;;;19.22;64.51;101643.28;6118519;29;20235;-49
2021/09/26 00:27:14;;;;;;;5.05;4.55;;;;;;;18.99;65.28;101636.94;6120777;29;20232;-47
2021/09/26 00:30:36;;;;;;;7.07;4.30;;;;;;;19.08;65.30;101635.81;6119752;29;20224;-52
2021/09/26 00:33:57;;;;;;;5.95;5.35;;;;;;;19.00;65.58;101633.41;6115684;29;20517;-49
2021/09/26 00:37:19;;;;;;;4.72;4.32;;;;;;;19.01;65.40;101629.84;6117280;29;20228;-49
2021/09/26 00:40:42;;;;;;;4.82;4.40;;;;;;;18.79;66.44;101629.63;6115874;29;20220;-50
2021/09/26 00:44:03;;;;;;;5.10;4.65;;;;;;;18.80;66.53;101630.50;6118876;28;20472;-52
2021/09/26 00:47:24;;;;;;;5.38;4.40;;;;;;;18.79;66.30;101631.41;6119339;28;20259;-50
2021/09/26 00:50:45;;;;;;;4.93;4.45;;;;;;;18.71;66.76;101626.34;6114893;29;20361;-49
2021/09/26 00:54:06;;;;;;;4.20;3.80;;;;;;;18.77;66.27;101631.44;6120579;29;20322;-53
2021/09/26 00:57:29;;;;;;;5.60;3.67;;;;;;;18.62;66.96;101626.63;6119453;29;20883;-54
2021/09/26 01:00:50;;;;;;;5.43;3.65;;;;;;;18.78;66.27;101621.75;6120794;29;20484;-51
2021/09/26 01:04:11;;;;;;;4.75;3.78;;;;;;;18.60;66.81;101623.16;6126492;28;20322;-52
2021/09/26 01:07:34;;;;;;;5.03;4.50;;;;;;;18.71;66.74;101626.34;6116029;29;20228;-53
2021/09/26 01:11:01;;;;;;;3.83;3.53;;;;;;;18.65;66.89;101626.50;6122454;29;20216;-49
2021/09/26 01:14:26;;;;;;;4.97;4.47;;;;;;;18.76;66.68;101623.56;6121376;29;20224;-54
2021/09/26 01:17:51;;;;;;;7.25;4.22;;;;;;;18.80;66.60;101627.88;6124787;28;20231;-47
2021/09/26 01:21:22;;;;;;;4.55;4.03;;;;;;;18.92;66.05;101619.59;6119912;29;21001;-49
2021/09/26 01:25:08;;;;;;;5.18;4.03;;;;;;;18.99;65.78;101621.09;6101611;29;20220;-54
2021/09/26 01:28:39;;;;;;;6.13;4.57;;;;;;;18.94;65.97;101625.69;6119331;28;20329;-49
2021/09/26 01:32:04;;;;;;;3.80;3.47;;;;;;;19.01;65.84;101623.72;6124901;28;20224;-51
2021/09/26 01:35:28;;;;;;;5.55;3.72;;;;;;;18.74;67.05;101631.53;6118050;29;20220;-53
2021/09/26 01:38:55;;;;;;;4.13;3.33;;;;;;;18.66;67.11;101626.47;6122271;29;20529;-51
2021/09/26 01:42:20;;;;;;;4.55;4.03;;;;;;;18.63;67.26;101626.59;6124094;29;20239;-51
2021/09/26 01:45:43;;;;;;;3.78;3.47;;;;;;;18.68;67.26;101629.94;6116881;29;20208;-51
2021/09/26 01:49:10;;;;;;;6.00;3.88;;;;;;;18.72;67.40;101627.22;6123394;29;20236;-48
2021/09/26 01:52:34;;;;;;;5.50;3.40;;;;;;;18.72;67.26;101628.06;6122065;28;20359;-47
2021/09/26 01:55:56;;;;;;;3.85;3.47;;;;;;;18.66;67.28;101626.47;6115419;29;20220;-50
2021/09/26 01:59:21;;;;;;;4.55;3.80;;;;;;;18.74;67.42;101622.75;6122459;28;20228;-47
2021/09/26 02:02:43;;;;;;;4.63;4.22;;;;;;;18.77;67.53;101622.66;6124875;29;20891;-48
2021/09/26 02:06:06;;;;;;;3.88;3.45;;;;;;;18.92;66.78;101616.97;6121690;29;20216;-49
2021/09/26 02:09:28;;;;;;;5.22;4.05;;;;;;;18.87;67.35;101627.63;6119769;29;20310;-50
2021/09/26 02:12:49;;;;;;;3.75;3.42;;;;;;;18.92;66.89;101623.97;6124353;29;20636;-51
2021/09/26 02:16:11;;;;;;;5.50;3.78;;;;;;;18.89;67.05;101617.88;6126148;29;20193;-48
2021/09/26 02:19:33;;;;;;;5.70;3.33;;;;;;;18.83;67.46;101620.72;6123118;29;20391;-47
2021/09/26 02:22:58;;;;;;;4.88;3.38;;;;;;;18.78;67.66;101621.75;6117646;28;20232;-49
2021/09/26 02:26:19;;;;;;;4.35;3.83;;;;;;;18.76;67.97;101615.66;6119957;29;20212;-46
2021/09/26 02:29:40;;;;;;;4.25;3.90;;;;;;;18.75;67.97;101616.56;6121937;29;20196;-49
2021/09/26 02:33:01;;;;;;;4.07;3.70;;;;;;;18.81;67.58;101619.91;6123206;28;20232;-51
2021/09/26 02:36:22;;;;;;;4.53;3.95;;;;;;;18.72;67.94;101609.59;6124647;28;20192;-50
2021/09/26 02:39:45;;;;;;;3.83;3.25;;;;;;;18.75;68.03;101611.31;6119688;29;20201;-49
2021/09/26 02:43:21;;;;;;;4.07;3.63;;;;;;;18.58;68.60;101612.66;6118637;28;20232;-48
2021/09/26 02:46:47;;;;;;;5.78;3.42;;;;;;;18.60;68.66;101610.84;6119832;29;20231;-50
2021/09/26 02:50:08;;;;;;;3.63;3.33;;;;;;;18.70;68.25;101609.63;6119371;29;20216;-52
2021/09/26 02:53:31;;;;;;;6.22;4.03;;;;;;;18.70;68.20;101609.63;6123336;28;20318;-47
2021/09/26 02:56:53;;;;;;;3.95;3.30;;;;;;;18.58;68.75;101610.03;6119899;29;20220;-50
2021/09/26 03:00:15;;;;;;;8.30;4.05;;;;;;;18.67;68.54;101596.56;6115893;29;21060;-53
2021/09/26 03:03:37;;;;;;;4.70;3.92;;;;;;;18.67;68.46;101607.13;6123018;28;20228;-50
2021/09/26 03:06:57;;;;;;;3.45;3.25;;;;;;;18.62;68.65;101601.09;6123081;29;20228;-49
2021/09/26 03:10:18;;;;;;;3.92;3.47;;;;;;;18.70;68.68;101601.72;6119743;29;20205;-53
2021/09/26 03:13:41;;;;;;;4.20;3.38;;;;;;;18.78;68.13;101588.28;6111362;29;20232;-52
2021/09/26 03:17:02;;;;;;;4.45;3.88;;;;;;;18.73;68.32;101594.63;6121596;28;20227;-54
2021/09/26 03:20:23;;;;;;;4.28;3.50;;;;;;;18.92;67.67;101598.47;6123104;29;20193;-50
2021/09/26 03:23:44;;;;;;;4.32;4.03;;;;;;;18.75;68.27;101595.47;6123531;29;20228;-52
2021/09/26 03:27:09;;;;;;;4.78;4.38;;;;;;;18.87;67.98;101590.69;6116423;29;20243;-51
2021/09/26 03:30:32;;;;;;;4.15;3.70;;;;;;;18.77;68.13;101591.00;6112356;29;20244;-54
2021/09/26 03:33:55;;;;;;;6.25;4.50;;;;;;;18.71;68.73;101589.41;6115259;28;20223;-49
2021/09/26 03:37:15;;;;;;;5.85;5.32;;;;;;;19.00;67.64;101595.56;6121758;28;20570;-52
2021/09/26 03:40:37;;;;;;;5.57;4.93;;;;;;;18.92;68.24;101590.56;6121201;29;20200;-51
2021/09/26 03:43:58;;;;;;;4.78;3.90;;;;;;;18.87;68.49;101582.78;6116208;29;20228;-48
2021/09/26 03:47:20;;;;;;;7.00;4.20;;;;;;;18.94;68.58;101575.53;6121453;28;20247;-52
2021/09/26 03:50:41;;;;;;;6.35;5.85;;;;;;;18.94;68.46;101580.81;6118811;29;20607;-48
2021/09/26 03:54:01;;;;;;;6.70;5.38;;;;;;;18.79;69.10;101583.91;6118171;28;20259;-51
2021/09/26 03:57:22;;;;;;;6.97;6.28;;;;;;;18.90;69.09;101579.16;6120054;29;20232;-51
2021/09/26 04:00:44;;;;;;;7.82;5.85;;;;;;;18.87;69.21;101566.94;6116878;29;20575;-53
2021/09/26 04:04:07;;;;;;;7.43;5.80;;;;;;;18.86;69.38;101573.16;6096651;29;20228;-49
2021/09/26 04:07:28;;;;;;;7.07;6.03;;;;;;;18.85;69.20;101573.19;6097632;29;20619;-51
2021/09/26 04:10:49;;;;;;;6.97;5.57;;;;;;;18.76;70.02;101576.06;6114089;29;20307;-50
2021/09/26 04:14:10;;;;;;;7.65;5.60;;;;;;;18.66;70.18;101576.34;6111546;29;20243;-48
2021/09/26 04:17:31;;;;;;;7.95;7.15;;;;;;;18.41;71.16;101570.09;6115279;29;20225;-52
2021/09/26 04:20:54;;;;;;;8.45;7.60;;;;;;;18.50;71.25;101561.91;6122747;29;20200;-50
2021/09/26 04:24:15;;;;;;;7.00;6.30;;;;;;;18.40;71.83;101566.59;6119489;29;20243;-53
2021/09/26 04:27:36;;;;;;;7.28;6.13;;;;;;;18.55;71.45;101565.25;6119825;29;20240;-50
2021/09/26 04:30:57;;;;;;;7.53;6.93;;;;;;;18.73;70.74;101565.59;6118504;29;20219;-51
2021/09/26 04:34:18;;;;;;;7.57;6.55;;;;;;;18.65;70.99;101553.53;6115960;29;20299;-52
2021/09/26 04:37:41;;;;;;;6.72;6.10;;;;;;;18.83;70.32;101564.47;6122215;28;20275;-50
2021/09/26 04:41:02;;;;;;;7.35;6.65;;;;;;;18.75;70.59;101566.44;6123651;29;20243;-51
2021/09/26 04:44:23;;;;;;;7.78;7.18;;;;;;;18.59;71.61;101560.75;6115272;29;20502;-52
2021/09/26 04:47:44;;;;;;;8.13;7.32;;;;;;;18.78;71.00;101553.13;6122445;29;20268;-50
2021/09/26 04:51:05;;;;;;;9.63;8.75;;;;;;;18.81;70.60;101558.38;6118646;29;20228;-48
2021/09/26 04:54:27;;;;;;;7.95;7.20;;;;;;;18.79;71.05;101566.28;6098515;29;20255;-52
2021/09/26 04:57:48;;;;;;;7.10;6.50;;;;;;;18.59;71.57;101552.84;6103048;29;20240;-52
2021/09/26 05:01:10;;;;;;;6.78;6.28;;;;;;;18.63;71.58;101565.91;6122770;29;20468;-52
2021/09/26 05:04:31;;;;;;;7.60;7.00;;;;;;;18.79;70.88;101560.16;6118362;29;20918;-52
2021/09/26 05:07:52;;;;;;;8.70;7.70;;;;;;;18.80;71.03;101564.53;6122925;29;20236;-51
2021/09/26 05:11:15;;;;;;;8.00;7.20;;;;;;;18.89;70.59;101566.91;6118903;29;20197;-50
2021/09/26 05:14:36;;;;;;;8.05;7.25;;;;;;;18.92;70.65;101565.94;6119459;29;20255;-52
2021/09/26 05:17:57;;;;;;;7.80;7.10;;;;;;;19.00;70.50;101566.53;6114179;29;21944;-50
2021/09/26 05:21:18;;;;;;;8.13;7.43;;;;;;;18.93;70.63;101563.25;6119021;29;20208;-48
2021/09/26 05:24:39;;;;;;;9.00;8.30;;;;;;;18.93;70.49;101563.25;6121603;29;20590;-52
2021/09/26 05:28:02;;;;;;;8.07;7.40;;;;;;;18.85;71.00;101565.28;6121706;29;20776;-48
2021/09/26 05:31:23;;;;;;;9.70;8.32;;;;;;;18.79;71.07;101560.16;6111649;29;20235;-48
2021/09/26 05:34:44;;;;;;;9.55;8.60;;;;;;;18.75;71.55;101564.66;6121277;29;20204;-49
2021/09/26 05:38:06;;;;;;;9.02;8.07;;;;;;;18.99;70.63;101563.03;6127616;28;20232;-49
2021/09/26 05:41:27;;;;;;;8.73;7.90;;;;;;;18.66;71.28;101564.94;6121552;28;20223;-54
2021/09/26 05:44:49;;;;;;;8.88;8.27;;;;;;;18.64;71.65;101566.78;6122701;29;20212;-51
2021/09/26 05:48:10;;;;;;;8.05;7.45;;;;;;;18.84;71.23;101558.25;6124047;29;20517;-49
2021/09/26 05:51:31;;;;;;;8.15;7.45;;;;;;;18.92;71.02;101560.66;6123611;28;20232;-51
2021/09/26 05:54:52;;;;;;;8.30;7.63;;;;;;;18.73;71.83;101570.88;6124926;29;20197;-54
2021/09/26 05:58:13;;;;;;;12.20;8.30;;;;;;;18.91;71.08;101570.34;6121449;29;20232;-49
2021/09/26 06:01:35;;;;;;;8.82;8.02;;;;;;;19.03;70.84;101564.66;6119045;29;20330;-48
2021/09/26 06:04:56;;;;;;;8.27;7.47;;;;;;;19.04;70.58;101568.19;6121397;29;20196;-53
2021/09/26 06:08:17;;;;;;;9.23;8.43;;;;;;;18.67;71.50;101561.41;6117831;29;20319;-54
2021/09/26 06:11:38;;;;;;;9.27;8.45;;;;;;;19.01;70.71;101565.63;6116549;29;20220;-51
2021/09/26 06:14:59;;;;;;;8.82;8.13;;;;;;;18.91;71.12;101565.06;6122928;29;20196;-50
2021/09/26 06:18:21;;;;;;;8.70;7.45;;;;;;;18.85;71.53;101570.56;6118584;28;20595;-49
2021/09/26 06:21:43;;;;;;;10.07;8.93;;;;;;;18.97;71.18;101570.16;6121404;29;20322;-52
2021/09/26 06:25:04;;;;;;;8.60;7.90;;;;;;;19.03;70.67;101564.66;6120558;29;20554;-50
2021/09/26 06:28:25;;;;;;;8.80;8.00;;;;;;;18.73;71.92;101571.75;6120148;28;20822;-48
2021/09/26 06:31:48;;;;;;;9.45;8.65;;;;;;;18.88;71.45;101570.44;6120732;29;20243;-50
2021/09/26 06:35:10;;;;;;;13.02;11.73;;;;;;;18.73;72.16;101560.31;6122974;29;20232;-47
2021/09/26 06:38:31;;;;;;;10.98;10.07;;;;;;;18.65;72.15;101563.19;6116708;28;20233;-52
2021/09/26 06:41:52;;;;;;;10.45;9.45;;;;;;;18.92;71.35;101569.44;6116929;29;20231;-50
2021/09/26 06:45:13;;;;;;;9.85;8.80;;;;;;;19.03;70.97;101564.66;6118435;29;20196;-50
2021/09/26 06:48:34;;;;;;;9.40;8.43;;;;;;;19.34;69.83;101574.22;6118606;29;20231;-53
2021/09/26 06:51:56;;;;;;;9.45;8.63;;;;;;;19.18;70.15;101575.66;6116406;29;20228;-52
2021/09/26 06:55:17;;;;;;;9.40;8.50;;;;;;;19.57;68.85;101564.66;6121367;29;20208;-52
2021/09/26 06:58:38;;;;;;;10.50;9.60;;;;;;;19.27;69.31;101563.00;6119282;29;20267;-52
2021/09/26 07:01:59;;;;;;;9.75;8.75;;;;;;;19.13;70.11;101564.38;6114953;29;20797;-48
2021/09/26 07:05:21;;;;;;;9.00;8.20;;;;;;;19.26;69.87;101565.69;6127159;29;20207;-48
2021/09/26 07:08:44;;;;;;;13.07;9.38;;;;;;;19.23;69.69;101565.78;6118845;29;20247;-48
2021/09/26 07:12:05;;;;;;;9.23;8.05;;;;;;;19.45;68.86;101555.38;6121743;29;20518;-52
2021/09/26 07:15:27;;;;;;;8.43;7.70;;;;;;;19.68;68.11;101559.84;6119775;29;20196;-51
2021/09/26 07:18:47;;;;;;;8.48;7.57;;;;;;;19.80;67.58;101563.88;6119117;28;20231;-52
2021/09/26 07:22:08;;;;;;;8.75;7.30;;;;;;;19.97;66.72;101560.63;6116686;28;20228;-51
2021/09/26 07:25:32;;;;;;;7.82;7.13;;;;;;;19.83;67.12;101566.38;6118791;29;20228;-50
2021/09/26 07:28:52;;;;;;;8.45;7.78;;;;;;;19.96;66.82;101565.03;6117656;28;20231;-48
2021/09/26 07:32:14;;;;;;;10.13;8.07;;;;;;;19.72;67.01;101568.56;6105368;28;20232;-48
2021/09/26 07:35:36;;;;;;;7.20;6.60;;;;;;;19.96;66.30;101561.53;6106105;29;20232;-53
2021/09/26 07:38:57;;;;;;;7.53;6.82;;;;;;;20.14;65.45;101555.59;6116158;29;20511;-48
2021/09/26 07:42:19;;;;;;;6.53;5.93;;;;;;;20.23;65.19;101560.50;6121051;28;20731;-51
2021/09/26 07:45:40;;;;;;;6.97;6.47;;;;;;;20.52;64.39;101557.66;6115936;29;20208;-44
2021/09/26 07:49:03;;;;;;;29.48;27.48;;;;;;;21.01;64.64;101559.25;6116823;28;21193;-48
2021/09/26 07:52:24;;;;;;;271.17;243.32;;;;;;;21.16;62.48;101562.19;6116100;28;20227;-50
2021/09/26 07:55:45;;;;;;;394.65;363.52;;;;;;;20.44;64.26;101563.25;6116299;29;20780;-48
2021/09/26 07:59:07;;;;;;;798.53;578.85;;;;;;;21.53;64.08;101555.34;6112815;28;20236;-51
2021/09/26 08:02:28;;;;;;;738.40;672.20;;;;;;;21.50;62.73;101558.13;6115648;29;20243;-53
2021/09/26 08:05:49;;;;;;;536.88;495.30;;;;;;;21.75;60.21;101556.16;6112034;29;20208;-51
2021/09/26 08:09:10;;;;;;;32.35;29.55;;;;;;;21.34;59.96;101553.44;6112303;28;20235;-54
2021/09/26 08:12:31;;;;;;;8.75;8.05;;;;;;;21.49;60.16;101548.47;6117676;28;20224;-54
2021/09/26 08:15:53;;;;;;;7.93;7.22;;;;;;;21.84;59.53;101546.91;6113677;29;20192;-49
2021/09/26 08:19:14;;;;;;;6.13;5.63;;;;;;;21.13;61.05;101552.59;6113623;28;20495;-51
2021/09/26 08:22:35;;;;;;;6.80;6.07;;;;;;;21.46;60.40;101549.47;6117375;28;20577;-50
2021/09/26 08:25:56;;;;;;;5.82;5.22;;;;;;;21.30;60.54;101543.91;6117166;29;20204;-50
2021/09/26 08:29:17;;;;;;;6.40;5.80;;;;;;;21.67;59.97;101547.66;6114568;29;20231;-51
2021/09/26 08:32:40;;;;;;;5.28;4.78;;;;;;;21.30;59.94;101540.41;6119600;28;20232;-51
2021/09/26 08:36:01;;;;;;;5.38;4.97;;;;;;;21.20;60.78;101559.34;6115176;29;20208;-47
2021/09/26 08:39:22;;;;;;;5.45;5.00;;;;;;;21.27;60.54;101549.34;6118239;29;20224;-51
2021/09/26 08:42:43;;;;;;;5.50;4.88;;;;;;;21.63;59.77;101535.47;6113409;28;20240;-50
2021/09/26 08:46:04;;;;;;;5.45;4.95;;;;;;;21.52;59.62;101546.56;6117400;29;20220;-49
2021/09/26 08:49:30;;;;;;;5.82;5.32;;;;;;;21.53;59.73;101539.47;6108010;29;20235;-54
2021/09/26 08:52:52;;;;;;;5.00;4.60;;;;;;;21.53;60.27;101547.41;6105975;29;20318;-50
2021/09/26 08:56:17;;;;;;;6.15;5.00;;;;;;;21.21;60.44;101555.78;6108183;29;20197;-51
2021/09/26 08:59:38;;;;;;;4.60;4.20;;;;;;;21.13;60.65;101549.06;6115129;29;20216;-54
2021/09/26 09:03:02;;;;;;;5.38;4.90;;;;;;;21.43;59.94;101549.56;6109682;29;20236;-53
2021/09/26 09:06:39;;;;;;;5.38;4.97;;;;;;;22.21;58.60;101543.44;6104055;29;20311;-52
2021/09/26 09:10:01;;;;;;;6.22;5.15;;;;;;;21.99;58.81;101542.72;6112102;29;20220;-49
2021/09/26 09:13:29;;;;;;;6.03;5.43;;;;;;;22.37;57.78;101540.09;6109569;28;20270;-50
2021/09/26 09:16:54;;;;;;;4.85;4.45;;;;;;;22.53;57.08;101543.75;6105320;29;20638;-52
2021/09/26 09:20:19;;;;;;;4.45;4.05;;;;;;;22.38;57.13;101540.03;6113760;29;20200;-50
2021/09/26 09:23:41;;;;;;;5.05;4.68;;;;;;;22.88;56.51;101535.88;6107882;29;20240;-49
2021/09/26 09:27:03;;;;;;;9.57;8.85;;;;;;;22.83;56.03;101527.25;6101067;28;20243;-46
2021/09/26 09:30:28;;;;;;;5.85;5.35;;;;;;;22.53;56.28;101532.28;6107765;29;20195;-49
2021/09/26 09:33:49;;;;;;;11.68;5.45;;;;;;;22.32;56.78;101535.03;6105541;29;20231;-48
2021/09/26 09:37:14;;;;;;;5.20;4.80;;;;;;;22.63;56.62;101545.97;6100338;29;20235;-53
2021/09/26 09:40:36;;;;;;;4.88;4.13;;;;;;;22.67;56.53;101544.91;6100793;29;20209;-51
2021/09/26 09:43:57;;;;;;;5.28;4.38;;;;;;;22.95;55.91;101534.66;6078647;29;20245;-50
2021/09/26 09:47:21;;;;;;;7.55;5.60;;;;;;;23.18;55.02;101525.53;6084023;28;20229;-52
2021/09/26 09:50:52;;;;;;;5.00;4.60;;;;;;;24.18;53.37;101524.75;6097876;29;20236;-51
2021/09/26 09:54:13;;;;;;;5.35;4.65;;;;;;;23.34;53.49;101533.59;6095967;28;20558;-47
2021/09/26 09:57:36;;;;;;;4.82;4.43;;;;;;;24.26;52.25;101524.31;6106599;29;20223;-50
2021/09/26 10:00:59;;;;;;;4.97;4.53;;;;;;;24.14;52.20;101542.69;6104527;29;20705;-49
2021/09/26 10:04:21;;;;;;;4.90;4.50;;;;;;;23.82;53.42;101524.94;6107162;29;20235;-50
2021/09/26 10:07:43;;;;;;;4.28;3.97;;;;;;;23.94;51.92;101522.50;6100313;29;20315;-50
2021/09/26 10:11:07;;;;;;;4.20;3.90;;;;;;;24.98;50.13;101520.25;6085671;29;20209;-50
2021/09/26 10:14:31;;;;;;;4.20;3.83;;;;;;;25.68;49.04;101520.50;6111697;29;20232;-49
2021/09/26 10:17:52;;;;;;;4.00;3.70;;;;;;;26.30;46.72;101514.00;6109614;28;20235;-52
2021/09/26 10:21:14;;;;;;;4.55;3.80;;;;;;;28.83;40.24;101503.56;6111182;29;20234;-53
2021/09/26 10:24:37;;;;;;;3.20;3.00;;;;;;;31.94;35.16;101502.34;6119033;29;20280;-49
2021/09/26 10:27:59;;;;;;;4.30;3.38;;;;;;;31.50;34.10;101499.03;6108325;28;20235;-50
2021/09/26 10:31:23;;;;;;;4.05;3.72;;;;;;;32.42;32.64;101499.94;6103220;28;20208;-51
2021/09/26 10:34:44;;;;;;;4.25;3.95;;;;;;;33.65;31.08;101485.75;6114224;29;20625;-52
2021/09/26 10:38:09;;;;;;;5.90;3.35;;;;;;;35.28;28.61;101491.94;6117684;28;20788;-54
2021/09/26 10:41:30;;;;;;;5.22;3.55;;;;;;;33.83;30.40;101489.38;6116241;29;20789;-53
2021/09/26 10:44:53;;;;;;;4.25;3.50;;;;;;;31.91;32.40;101483.78;6119486;29;20196;-53
2021/09/26 10:48:16;;;;;;;4.40;4.03;;;;;;;27.37;41.28;101505.16;6114623;28;20239;-49
2021/09/26 10:51:49;;;;;;;4.05;3.78;;;;;;;27.28;42.29;101498.66;6098891;29;20239;-51
2021/09/26 10:55:32;;;;;;;3.75;3.45;;;;;;;31.31;35.05;101480.94;6113819;29;20196;-47
2021/09/26 10:58:56;;;;;;;4.13;3.83;;;;;;;30.67;35.21;101476.53;6113679;28;20633;-52
2021/09/26 11:02:37;;;;;;;3.80;3.53;;;;;;;34.20;29.49;101476.78;6108440;28;20232;-52
2021/09/26 11:05:59;;;;;;;3.95;3.58;;;;;;;34.89;28.74;101480.66;6116547;29;20712;-51
2021/09/26 11:09:21;;;;;;;4.25;3.85;;;;;;;34.47;28.89;101475.88;6112658;29;20239;-51
2021/09/26 11:12:43;;;;;;;4.20;3.72;;;;;;;33.87;29.53;101462.88;6112656;28;20231;-49
2021/09/26 11:16:16;;;;;;;3.50;3.28;;;;;;;34.26;28.83;101460.84;6122777;29;20536;-51
2021/09/26 11:19:52;;;;;;;3.50;3.20;;;;;;;35.11;27.80;101463.06;6111083;29;20931;-53
2021/09/26 11:23:37;;;;;;;3.80;3.50;;;;;;;36.32;26.61;101451.25;6121939;29;20235;-52
2021/09/26 11:27:08;;;;;;;3.63;3.08;;;;;;;36.52;25.35;101455.31;6118841;28;20240;-51
2021/09/26 11:30:38;;;;;;;4.50;4.20;;;;;;;37.83;24.92;101454.22;6116450;29;20232;-49
2021/09/26 11:34:00;;;;;;;4.68;4.28;;;;;;;37.83;24.46;101455.06;6110789;28;20231;-54
2021/09/26 11:37:48;;;;;;;3.53;3.30;;;;;;;30.43;32.94;101457.91;6111843;29;20628;-51
2021/09/26 11:41:11;;;;;;;3.13;2.92;;;;;;;27.94;36.89;101458.41;6115601;29;20228;-50
2021/09/26 11:44:33;;;;;;;4.50;3.30;;;;;;;26.70;39.71;101458.00;6111299;29;20228;-52
2021/09/26 11:47:59;;;;;;;3.17;2.97;;;;;;;25.80;42.36;101452.19;6118251;28;20231;-53
2021/09/26 11:51:20;;;;;;;3.53;3.28;;;;;;;26.39;41.36;101449.31;6105595;29;20232;-46
2021/09/26 11:54:42;;;;;;;4.90;4.50;;;;;;;25.96;42.59;101452.13;6080506;29;20225;-53
2021/09/26 11:58:08;;;;;;;3.92;3.67;;;;;;;25.85;43.21;101439.41;6092651;29;20570;-49
2021/09/26 12:01:31;;;;;;;4.10;3.70;;;;;;;25.60;44.84;101440.09;6100645;29;20209;-54
2021/09/26 12:04:53;;;;;;;4.10;3.80;;;;;;;25.15;45.93;101440.16;6102978;29;20686;-49
2021/09/26 12:08:15;;;;;;;4.80;4.35;;;;;;;25.32;45.36;101446.31;6103635;29;20357;-53
2021/09/26 12:11:50;;;;;;;3.80;3.60;;;;;;;25.47;45.22;101433.81;6097598;29;20212;-51
2021/09/26 12:15:14;;;;;;;4.47;4.07;;;;;;;26.03;43.98;101439.22;6105953;29;20192;-52
2021/09/26 12:18:35;;;;;;;5.30;4.90;;;;;;;27.30;41.51;101430.72;6108388;29;20236;-51
2021/09/26 12:22:01;;;;;;;7.43;6.50;;;;;;;28.00;39.92;101434.69;6103553;29;20232;-50
2021/09/26 12:25:31;;;;;;;3.53;3.22;;;;;;;29.18;37.78;101426.81;6113254;29;20196;-54
2021/09/26 12:29:07;;;;;;;4.35;3.95;;;;;;;27.46;41.19;101430.50;6115058;28;20231;-52
2021/09/26 12:32:31;;;;;;;5.70;5.15;;;;;;;26.20;43.47;101435.47;6119173;29;20235;-50
2021/09/26 12:35:55;;;;;;;4.82;3.95;;;;;;;25.09;45.65;101440.53;6111813;29;20296;-52
2021/09/26 12:39:21;;;;;;;5.60;4.45;;;;;;;25.46;44.90;101424.97;6108667;28;20231;-50
2021/09/26 12:42:51;;;;;;;4.88;4.43;;;;;;;26.18;43.82;101429.38;6108093;29;20228;-52
2021/09/26 12:46:15;;;;;;;8.65;5.15;;;;;;;25.03;46.54;101424.91;6094961;29;20223;-49
2021/09/26 12:49:38;;;;;;;3.88;3.58;;;;;;;25.31;45.85;101433.91;6116599;28;20236;-49
2021/09/26 12:53:00;;;;;;;4.82;4.50;;;;;;;24.96;47.63;101437.72;6090462;28;20221;-47
2021/09/26 12:56:25;;;;;;;5.13;4.65;;;;;;;25.21;47.79;101428.25;6076710;28;20229;-51
2021/09/26 12:59:48;;;;;;;4.40;4.10;;;;;;;25.12;47.50;101444.81;6104366;29;21000;-48
2021/09/26 13:03:14;;;;;;;4.22;3.92;;;;;;;24.70;48.58;101433.13;6104191;29;20328;-48
2021/09/26 13:06:46;;;;;;;5.53;5.03;;;;;;;25.32;47.86;101432.97;6113025;29;20526;-52
2021/09/26 13:10:12;;;;;;;5.60;5.20;;;;;;;25.26;48.05;101422.69;6107469;29;20219;-53
2021/09/26 13:13:35;;;;;;;5.45;4.30;;;;;;;24.98;49.09;101429.66;6102662;29;20326;-51
2021/09/26 13:17:17;;;;;;;6.72;5.93;;;;;;;25.08;49.98;101432.63;6109893;29;21387;-49
2021/09/26 13:24:09;;;;;;;273.27;249.80;;;;;;;25.33;48.74;101427.53;6112766;28;20560;-51
2021/09/26 13:27:37;;;;;;;12.10;11.05;;;;;;;25.32;48.78;101436.50;6107583;29;20231;-52
2021/09/26 13:31:20;;;;;;;6.80;6.20;;;;;;;25.10;49.02;101425.38;6113313;29;20224;-50
2021/09/26 13:34:43;;;;;;;5.68;5.22;;;;;;;24.93;49.24;101429.94;6119750;29;20223;-50
2021/09/26 13:38:24;;;;;;;6.35;4.55;;;;;;;25.20;48.57;101421.22;6116698;28;20318;-50
2021/09/26 13:41:46;;;;;;;9.05;5.45;;;;;;;25.58;47.78;101418.03;6114452;28;20227;-53
2021/09/26 13:45:10;;;;;;;4.97;4.57;;;;;;;25.36;47.92;101431.84;6115216;29;20204;-52
2021/09/26 13:48:32;;;;;;;4.57;4.18;;;;;;;25.48;47.76;101424.88;6112789;29;20259;-53
2021/09/26 13:51:55;;;;;;;4.88;4.47;;;;;;;25.24;47.45;101425.47;6122193;28;20673;-53
2021/09/26 13:55:16;;;;;;;6.03;4.97;;;;;;;25.11;46.72;101421.78;6119395;29;20197;-52
2021/09/26 13:58:38;;;;;;;5.25;4.85;;;;;;;25.46;46.84;101424.13;6110418;28;20737;-52
2021/09/26 14:02:00;;;;;;;5.53;4.70;;;;;;;25.72;47.06;101418.00;6105144;28;20232;-51
2021/09/26 14:05:21;;;;;;;5.30;4.82;;;;;;;25.78;46.78;101422.06;6117459;29;20212;-54
2021/09/26 14:08:44;;;;;;;4.63;3.97;;;;;;;25.40;46.70;101432.50;6100709;28;20626;-51
2021/09/26 14:12:06;;;;;;;5.38;4.32;;;;;;;25.17;47.62;101421.41;6101154;28;20240;-53
2021/09/26 14:15:27;;;;;;;5.93;5.07;;;;;;;25.32;48.03;101423.16;6105464;29;20220;-47
2021/09/26 14:18:48;;;;;;;5.78;5.35;;;;;;;25.31;47.95;101426.78;6109232;29;20287;-47
2021/09/26 14:22:13;;;;;;;5.68;4.85;;;;;;;25.35;48.35;101425.63;6126296;28;20235;-49
2021/09/26 14:25:37;;;;;;;5.13;4.72;;;;;;;25.28;48.00;101420.75;6138189;28;20211;-52
2021/09/26 14:28:59;;;;;;;4.53;4.20;;;;;;;24.79;48.85;101421.06;6138508;28;20239;-51
2021/09/26 14:32:19;;;;;;;5.68;5.18;;;;;;;25.28;47.93;101416.31;6140929;28;20239;-48
2021/09/26 14:35:41;;;;;;;4.68;4.38;;;;;;;25.18;48.33;101406.28;6132414;28;20294;-49
2021/09/26 14:39:02;;;;;;;5.78;5.18;;;;;;;25.35;48.22;101414.13;6126610;28;20235;-47
2021/09/26 14:42:25;;;;;;;5.65;5.25;;;;;;;25.47;47.76;101412.50;6124285;28;20228;-50
2021/09/26 14:45:46;;;;;;;5.05;4.65;;;;;;;25.23;48.52;101414.88;6131771;28;20274;-51
2021/09/26 14:49:07;;;;;;;5.25;4.85;;;;;;;25.31;49.09;101418.78;6131852;28;20528;-52
2021/09/26 14:52:28;;;;;;;5.47;5.07;;;;;;;25.49;47.60;101405.25;6136968;28;20222;-46
2021/09/26 14:55:50;;;;;;;11.68;10.77;;;;;;;25.62;47.97;101408.00;6137643;29;20668;-51
2021/09/26 14:59:15;;;;;;;7.30;6.60;;;;;;;25.81;47.17;101415.72;6140275;28;20239;-49
2021/09/26 15:02:36;;;;;;;9.85;8.95;;;;;;;26.19;46.53;101404.38;6134522;28;20227;-48
2021/09/26 15:05:57;;;;;;;7.50;6.97;;;;;;;26.25;46.84;101404.84;6134412;29;20574;-49
2021/09/26 15:09:18;;;;;;;5.68;5.20;;;;;;;26.00;47.38;101410.06;6126435;28;20247;-51
2021/09/26 15:12:41;;;;;;;5.35;4.95;;;;;;;25.71;47.75;101400.28;6136679;28;20243;-49
2021/09/26 15:16:04;;;;;;;5.55;5.10;;;;;;;25.53;48.15;101401.44;6143116;29;20196;-51
2021/09/26 15:19:25;;;;;;;6.55;6.05;;;;;;;25.61;48.16;101399.16;6135406;28;20235;-50
2021/09/26 15:22:46;;;;;;;8.18;6.93;;;;;;;25.87;47.83;101399.31;6135034;28;20531;-53
2021/09/26 15:26:07;;;;;;;7.22;6.47;;;;;;;25.57;48.58;101400.31;6136460;29;20290;-49
2021/09/26 15:29:29;;;;;;;7.63;7.03;;;;;;;25.85;48.06;101406.56;6134202;28;20216;-52
2021/09/26 15:32:51;;;;;;;7.85;7.15;;;;;;;26.01;47.67;101407.28;6131463;28;20227;-48
2021/09/26 15:36:13;;;;;;;6.00;5.60;;;;;;;26.12;47.42;101410.13;6137060;28;20211;-47
2021/09/26 15:39:35;;;;;;;6.18;5.68;;;;;;;25.91;47.81;101404.38;6129879;28;20495;-49
2021/09/26 15:42:56;;;;;;;6.65;6.15;;;;;;;25.72;48.62;101398.47;6141724;28;20231;-48
2021/09/26 15:46:18;;;;;;;7.90;7.25;;;;;;;25.49;49.28;101399.91;6142911;29;20290;-54